createdAt,value
2023-02-11T00:02:01.515Z,54.00
2023-02-11T00:05:05.564Z,50.20
2023-02-11T00:08:08.756Z,42.78
2023-02-11T00:11:17.616Z,46.58
2023-02-11T00:14:20.951Z,39.55
2023-02-11T00:17:24.224Z,43.15
2023-02-11T00:20:27.283Z,44.75
2023-02-11T00:23:31.332Z,43.70
2023-02-11T00:26:36.030Z,46.37
2023-02-11T00:29:39.706Z,41.20
2023-02-11T00:32:42.823Z,50.80
2023-02-11T00:35:47.545Z,48.30
2023-02-11T00:38:53.464Z,49.65
2023-02-11T00:41:59.130Z,37.78
2023-02-11T00:45:04.658Z,44.10
2023-02-11T00:48:08.132Z,42.03
2023-02-11T00:51:12.092Z,43.55
2023-02-11T00:54:15.631Z,43.08
2023-02-11T00:57:19.391Z,47.17
2023-02-11T01:00:22.953Z,47.90
2023-02-11T01:03:26.421Z,41.92
2023-02-11T01:06:31.222Z,44.03
2023-02-11T01:09:34.336Z,41.25
2023-02-11T01:12:38.114Z,40.22
2023-02-11T01:15:41.508Z,38.58
2023-02-11T01:18:44.992Z,41.75
2023-02-11T01:21:48.261Z,39.28
2023-02-11T01:24:51.793Z,43.53
2023-02-11T01:27:55.023Z,40.70
2023-02-11T01:30:58.884Z,43.70
2023-02-11T01:34:03.596Z,39.40
2023-02-11T01:37:07.356Z,35.95
2023-02-11T01:40:16.939Z,40.85
2023-02-11T01:43:21.845Z,39.00
2023-02-11T01:46:36.621Z,41.55
2023-02-11T01:49:46.650Z,40.97
2023-02-11T01:52:49.892Z,37.13
2023-02-11T08:06:41.905Z,33.20
2023-02-11T08:09:45.702Z,119.78
2023-02-11T08:12:48.856Z,107.87
2023-02-11T08:15:52.585Z,123.72
2023-02-11T08:18:57.812Z,93.90
2023-02-11T08:25:04.823Z,98.40
2023-02-11T08:28:09.429Z,94.55
2023-02-11T08:31:16.803Z,48.85
2023-02-11T08:34:20.291Z,39.97
2023-02-11T08:37:24.753Z,36.85
2023-02-11T08:40:29.688Z,41.55
2023-02-11T08:43:33.571Z,50.43
2023-02-11T08:46:37.551Z,39.43
2023-02-11T08:49:42.516Z,45.60
2023-02-11T08:52:45.879Z,41.25
2023-02-11T08:55:53.449Z,39.00
2023-02-11T08:58:56.981Z,43.22
2023-02-11T09:02:00.213Z,42.20
2023-02-11T09:05:03.807Z,45.35
2023-02-11T09:08:07.007Z,50.40
2023-02-11T09:11:11.276Z,52.58
2023-02-11T09:14:20.593Z,43.05
2023-02-11T11:08:52.897Z,35.92
2023-02-11T11:20:29.502Z,47.40
2023-02-11T11:23:32.434Z,46.33
2023-02-11T11:26:44.876Z,49.17
2023-02-11T11:29:53.688Z,46.58
2023-02-11T11:32:56.909Z,41.78
2023-02-11T11:36:04.864Z,44.50
2023-02-11T11:39:24.647Z,40.00
2023-02-11T11:42:33.414Z,45.28
2023-02-11T11:45:36.467Z,46.58
2023-02-11T11:48:41.641Z,49.05
2023-02-11T11:51:51.506Z,53.40
2023-02-11T11:55:00.601Z,44.35
2023-02-11T11:58:04.872Z,36.42
2023-02-11T12:01:13.250Z,32.38
2023-02-11T12:04:41.865Z,38.38
2023-02-11T12:08:03.426Z,30.52
2023-02-11T12:11:21.694Z,31.73
2023-02-11T12:14:43.276Z,32.13
2023-02-11T12:18:01.902Z,33.72
2023-02-11T12:21:17.555Z,37.25
2023-02-11T12:24:37.187Z,36.63
2023-02-11T12:27:54.625Z,29.85
2023-02-11T12:31:04.954Z,35.15
2023-02-11T12:34:17.408Z,34.25
2023-02-11T12:37:42.840Z,30.65
2023-02-11T12:41:10.336Z,35.28
2023-02-11T12:44:52.333Z,28.87
2023-02-11T12:48:07.514Z,31.08
2023-02-11T12:51:35.979Z,44.15
2023-02-11T12:54:53.394Z,26.52
2023-02-11T12:57:59.918Z,28.45
2023-02-11T13:01:15.394Z,25.90
2023-02-11T13:04:47.762Z,26.35
2023-02-11T13:07:52.136Z,25.90
2023-02-11T13:10:58.229Z,22.90
2023-02-11T13:14:14.716Z,23.92
2023-02-11T13:17:26.540Z,26.92
2023-02-11T13:20:29.613Z,25.45
2023-02-11T13:23:51.140Z,24.15
2023-02-11T13:27:33.388Z,25.70
2023-02-11T13:30:41.464Z,28.15
2023-02-11T13:33:46.284Z,23.20
2023-02-11T13:36:57.308Z,29.00
2023-02-11T13:40:01.326Z,30.65
2023-02-11T13:43:06.927Z,23.42
2023-02-11T13:46:12.924Z,27.45
2023-02-11T13:49:21.001Z,30.60
2023-02-11T13:52:32.687Z,20.23
2023-02-11T13:55:36.513Z,26.10
2023-02-11T13:58:50.225Z,28.00
2023-02-11T14:02:11.992Z,33.63
2023-02-11T14:05:34.259Z,32.33
2023-02-11T14:09:11.286Z,26.25
2023-02-11T14:12:31.549Z,24.63
2023-02-11T14:15:41.695Z,24.67
2023-02-11T14:18:50.113Z,25.88
2023-02-11T14:21:52.950Z,29.05
2023-02-11T14:25:01.220Z,20.05
2023-02-11T14:28:13.598Z,25.88
2023-02-11T14:31:44.019Z,26.48
2023-02-11T14:35:15.890Z,29.65
2023-02-11T14:38:43.569Z,32.42
2023-02-11T14:41:49.580Z,30.42
2023-02-11T14:44:57.121Z,32.85
2023-02-11T14:48:17.434Z,28.95
2023-02-11T14:51:27.659Z,30.10
2023-02-11T14:54:32.560Z,27.85
2023-02-11T14:57:38.079Z,30.92
2023-02-11T15:00:53.918Z,20.02
2023-02-11T15:03:59.847Z,25.50
2023-02-11T15:07:08.122Z,28.20
2023-02-11T15:10:23.645Z,31.73
2023-02-11T15:13:31.211Z,33.17
2023-02-11T15:16:35.706Z,32.03
2023-02-11T15:19:41.840Z,32.70
2023-02-11T15:22:46.786Z,30.65
2023-02-11T15:25:56.497Z,29.80
2023-02-11T15:29:02.164Z,34.00
2023-02-11T15:32:09.761Z,33.03
2023-02-11T15:35:15.113Z,28.95
2023-02-11T15:38:19.067Z,33.90
2023-02-11T15:41:36.622Z,31.02
2023-02-11T15:44:40.488Z,32.95
2023-02-11T15:47:51.453Z,30.23
2023-02-11T15:51:02.737Z,32.38
2023-02-11T15:54:22.368Z,30.58
2023-02-11T15:57:28.065Z,32.38
2023-02-11T16:00:36.996Z,31.35
2023-02-11T16:03:43.068Z,34.42
2023-02-11T16:06:48.397Z,31.67
2023-02-11T16:09:58.096Z,26.35
2023-02-11T16:13:08.401Z,35.13
2023-02-11T16:16:20.718Z,33.75
2023-02-11T16:19:27.421Z,32.83
2023-02-11T16:22:35.961Z,34.05
2023-02-11T16:25:44.522Z,30.02
2023-02-11T16:28:50.809Z,30.05
2023-02-11T16:32:06.229Z,35.72
2023-02-11T16:35:12.158Z,37.70
2023-02-11T16:38:17.845Z,32.92
2023-02-11T16:41:22.656Z,37.28
2023-02-11T16:44:27.211Z,35.05
2023-02-11T16:47:32.040Z,33.92
2023-02-11T16:50:37.694Z,31.20
2023-02-11T16:53:41.585Z,32.00
2023-02-11T16:56:45.509Z,30.92
2023-02-11T16:59:50.735Z,36.88
2023-02-11T17:02:56.243Z,32.47
2023-02-11T17:06:05.412Z,41.35
2023-02-11T17:09:21.189Z,31.83
2023-02-11T17:12:25.675Z,37.75
2023-02-11T17:15:30.518Z,30.92
2023-02-11T17:18:34.687Z,30.35
2023-02-11T17:21:38.507Z,30.83
2023-02-11T17:24:43.112Z,32.78
2023-02-11T17:27:47.229Z,34.95
2023-02-11T17:30:54.882Z,30.75
2023-02-11T17:33:58.816Z,33.78
2023-02-11T17:37:09.538Z,29.83
2023-02-11T17:40:15.029Z,32.70
2023-02-11T17:43:21.175Z,31.20
2023-02-11T17:46:25.380Z,37.90
2023-02-11T17:49:30.334Z,38.90
2023-02-11T17:52:34.376Z,29.30
2023-02-11T17:55:39.141Z,31.70
2023-02-11T17:58:43.396Z,34.42
2023-02-11T18:01:47.687Z,36.47
2023-02-11T18:04:56.056Z,44.45
2023-02-11T18:08:01.069Z,39.97
2023-02-11T18:11:11.999Z,36.40
2023-02-11T18:14:21.564Z,33.70
2023-02-11T18:17:26.709Z,35.88
2023-02-11T18:20:32.692Z,39.65
2023-02-11T18:23:37.264Z,37.15
2023-02-11T18:26:42.297Z,32.47
2023-02-11T18:29:46.522Z,34.88
2023-02-11T18:32:56.325Z,33.35
2023-02-11T18:36:02.869Z,31.42
2023-02-11T18:39:07.218Z,33.90
2023-02-11T18:42:13.247Z,37.38
2023-02-11T18:45:17.497Z,38.50
2023-02-11T18:48:22.877Z,33.38
2023-02-11T18:51:27.767Z,33.93
2023-02-11T18:54:35.837Z,39.27
2023-02-11T18:57:41.809Z,47.80
2023-02-11T19:00:48.284Z,45.33
2023-02-11T19:03:55.751Z,37.08
2023-02-11T19:07:06.055Z,40.58
2023-02-11T19:10:10.824Z,39.47
2023-02-11T19:16:20.355Z,34.58
2023-02-11T19:19:26.456Z,37.88
2023-02-11T19:22:30.636Z,37.50
2023-02-11T19:25:37.809Z,36.63
2023-02-11T19:28:42.249Z,35.28
2023-02-11T19:31:47.076Z,36.83
2023-02-11T19:34:52.913Z,33.92
2023-02-11T19:37:57.850Z,34.40
2023-02-11T19:41:01.954Z,30.37
2023-02-11T19:44:10.169Z,30.83
2023-02-11T19:47:16.583Z,31.45
2023-02-11T19:50:21.092Z,31.95
2023-02-11T19:53:25.717Z,31.35
2023-02-11T19:56:30.598Z,30.35
2023-02-11T19:59:34.585Z,33.53
2023-02-11T20:02:41.029Z,32.67
2023-02-11T20:05:48.962Z,31.23
2023-02-11T20:09:01.542Z,27.77
2023-02-11T20:12:05.454Z,27.52
2023-02-11T20:15:10.344Z,31.52
2023-02-11T20:21:27.420Z,27.55
2023-02-11T20:24:34.171Z,28.02
2023-02-11T20:27:39.419Z,29.08
2023-02-11T20:33:51.618Z,24.75
2023-02-11T20:36:59.655Z,27.95
2023-02-11T20:43:08.529Z,23.00
2023-02-11T20:46:17.874Z,27.05
2023-02-11T20:49:24.891Z,25.62
2023-02-11T20:52:29.497Z,25.25
2023-02-11T20:55:39.600Z,25.07
2023-02-11T20:58:43.765Z,30.40
2023-02-11T21:01:51.145Z,23.52
2023-02-11T21:04:55.487Z,28.50
2023-02-11T21:08:00.249Z,31.20
2023-02-11T21:11:04.441Z,26.75
2023-02-11T21:14:12.668Z,26.37
2023-02-11T21:17:16.418Z,26.70
2023-02-11T21:20:24.269Z,26.33
2023-02-11T21:23:29.573Z,27.65
2023-02-11T21:26:36.044Z,24.40
2023-02-11T21:29:52.622Z,25.25
2023-02-11T21:33:03.333Z,22.40
2023-02-11T21:36:08.566Z,24.60
2023-02-11T21:39:19.458Z,28.10
2023-02-11T21:42:24.507Z,28.48
2023-02-11T21:45:30.214Z,23.40
2023-02-11T21:48:35.610Z,21.83
2023-02-11T21:51:39.894Z,25.42
2023-02-11T21:54:42.892Z,24.20
2023-02-11T21:57:47.132Z,27.13
2023-02-11T22:00:50.802Z,23.52
2023-02-11T22:03:54.986Z,23.10
2023-02-11T22:06:58.601Z,23.73
2023-02-11T22:10:03.895Z,24.50
2023-02-11T22:13:07.457Z,23.20
2023-02-11T22:16:15.317Z,23.08
2023-02-11T22:19:19.059Z,23.67
2023-02-11T22:22:22.654Z,21.80
2023-02-11T22:25:25.748Z,26.00
2023-02-11T22:28:30.195Z,22.70
2023-02-11T22:31:34.900Z,22.75
2023-02-11T22:34:38.136Z,23.02
2023-02-11T22:37:41.871Z,22.13
2023-02-11T22:40:45.034Z,21.37
2023-02-11T22:43:48.784Z,24.52
2023-02-11T22:46:52.830Z,21.37
2023-02-11T22:49:56.933Z,21.92
2023-02-11T22:53:00.375Z,22.92
2023-02-11T22:56:08.583Z,18.83
2023-02-11T22:59:14.198Z,24.42
